Time;durP1;ratioP1;P1;durP2;ratioP2;P2;SDS_P1;SDS_P2;PMS_P1;PMS_P2;Temp;Humidity;BMP_temperature;BMP_pressure;BME280_temperature;BME280_humidity;BME280_pressure;Samples;Min_cycle;Max_cycle;Signal;HPM_P1;HPM_P2
2022/11/07 00:00:48;;;;;;;31.60;19.27;;;;;;;;;;4956142;29;20039;-85
2022/11/07 00:03:15;;;;;;;32.60;20.88;;;;;;;;;;4955545;28;20019;-84
2022/11/07 00:05:41;;;;;;;35.50;21.05;;;;;;;;;;4955801;28;20043;-87
2022/11/07 00:08:07;;;;;;;37.25;20.52;;;;;;;;;;4955598;29;20034;-85
2022/11/07 00:10:33;;;;;;;37.42;21.50;;;;;;;;;;4963497;28;20107;-86
2022/11/07 00:12:59;;;;;;;35.25;22.35;;;;;;;;;;4980715;28;20040;-86
2022/11/07 00:15:25;;;;;;;53.53;32.63;;;;;;;;;;4978983;28;20039;-86
2022/11/07 00:17:51;;;;;;;45.15;29.17;;;;;;;;;;4953455;28;20046;-86
2022/11/07 00:20:17;;;;;;;48.25;27.40;;;;;;;;;;4940906;29;20058;-86
2022/11/07 00:22:43;;;;;;;39.65;24.48;;;;;;;;;;4941377;29;20122;-86
2022/11/07 00:25:10;;;;;;;45.90;26.55;;;;;;;;;;4941128;29;20193;-86
2022/11/07 00:27:36;;;;;;;49.97;29.15;;;;;;;;;;4957822;29;20024;-86
2022/11/07 00:30:02;;;;;;;49.67;27.38;;;;;;;;;;4956774;29;20023;-86
2022/11/07 00:32:28;;;;;;;50.58;28.63;;;;;;;;;;4956226;29;20035;-86
2022/11/07 00:34:54;;;;;;;52.88;30.73;;;;;;;;;;4956584;29;20023;-87
2022/11/07 00:37:20;;;;;;;54.05;27.75;;;;;;;;;;4956307;29;20031;-85
2022/11/07 00:39:46;;;;;;;50.83;27.35;;;;;;;;;;4956549;29;20035;-86
2022/11/07 00:42:12;;;;;;;49.17;28.35;;;;;;;;;;4955961;29;20061;-86
2022/11/07 00:44:38;;;;;;;48.35;27.15;;;;;;;;;;4956237;29;20389;-87
2022/11/07 00:47:04;;;;;;;46.10;26.70;;;;;;;;;;4956439;29;20073;-86
2022/11/07 00:49:31;;;;;;;49.45;28.50;;;;;;;;;;4957559;29;20030;-87
2022/11/07 00:51:57;;;;;;;45.95;26.75;;;;;;;;;;4956138;29;20027;-85
2022/11/07 00:54:23;;;;;;;47.22;26.58;;;;;;;;;;4957776;29;20158;-86
2022/11/07 00:56:49;;;;;;;50.30;27.55;;;;;;;;;;4956293;29;20083;-86
2022/11/07 00:59:15;;;;;;;55.10;31.45;;;;;;;;;;4956238;29;20054;-85
2022/11/07 01:01:41;;;;;;;61.55;32.60;;;;;;;;;;4956601;29;20486;-86
2022/11/07 01:06:55;;;;;;;49.58;26.92;;;;;;;;;;4958271;29;20034;-86
2022/11/07 01:09:22;;;;;;;44.63;27.40;;;;;;;;;;4957856;29;20023;-84
2022/11/07 01:11:48;;;;;;;41.97;26.00;;;;;;;;;;4957434;29;20070;-86
2022/11/07 01:14:16;;;;;;;44.05;28.27;;;;;;;;;;4956709;29;20114;-86
2022/11/07 01:16:43;;;;;;;46.33;26.95;;;;;;;;;;4955875;29;20035;-85
2022/11/07 01:19:09;;;;;;;49.67;29.08;;;;;;;;;;4959416;29;20086;-86
2022/11/07 01:21:36;;;;;;;42.78;26.25;;;;;;;;;;4960157;29;20034;-85
2022/11/07 01:24:03;;;;;;;44.88;27.33;;;;;;;;;;4960061;29;20028;-85
2022/11/07 01:26:29;;;;;;;51.42;30.10;;;;;;;;;;4960288;29;20031;-84
2022/11/07 01:28:55;;;;;;;48.15;29.60;;;;;;;;;;4963310;29;20047;-85
2022/11/07 01:31:22;;;;;;;50.80;28.10;;;;;;;;;;4960102;29;20031;-87
2022/11/07 01:33:48;;;;;;;46.10;26.23;;;;;;;;;;4955311;28;20023;-86
2022/11/07 01:36:16;;;;;;;42.05;26.13;;;;;;;;;;4955262;29;20062;-86
2022/11/07 01:38:44;;;;;;;46.90;28.13;;;;;;;;;;4955380;29;20037;-86
2022/11/07 01:41:21;;;;;;;46.55;25.58;;;;;;;;;;4954947;29;20043;-85
2022/11/07 01:43:59;;;;;;;42.95;25.95;;;;;;;;;;4959580;28;20031;-86
2022/11/07 01:46:27;;;;;;;50.00;24.88;;;;;;;;;;4974719;28;20027;-86
2022/11/07 01:49:03;;;;;;;43.17;23.50;;;;;;;;;;4974610;28;20027;-86
2022/11/07 01:51:31;;;;;;;39.83;23.17;;;;;;;;;;4974641;28;20015;-86
2022/11/07 01:53:57;;;;;;;43.28;24.17;;;;;;;;;;4974562;28;20073;-86
2022/11/07 01:56:25;;;;;;;42.22;24.83;;;;;;;;;;4974352;28;20457;-85
2022/11/07 01:58:52;;;;;;;47.13;26.10;;;;;;;;;;4974515;28;20065;-85
2022/11/07 02:01:18;;;;;;;46.72;24.63;;;;;;;;;;4974228;28;20469;-86
2022/11/07 02:03:46;;;;;;;45.13;24.40;;;;;;;;;;4974474;28;20018;-86
2022/11/07 02:06:32;;;;;;;44.90;25.60;;;;;;;;;;4974458;28;20034;-86
2022/11/07 02:08:59;;;;;;;48.42;25.60;;;;;;;;;;4974033;28;20023;-85
2022/11/07 02:11:25;;;;;;;44.85;25.77;;;;;;;;;;4974382;28;20027;-85
2022/11/07 02:13:51;;;;;;;48.08;27.60;;;;;;;;;;4970647;28;20030;-86
2022/11/07 02:16:17;;;;;;;50.15;27.42;;;;;;;;;;4954782;29;20030;-85
2022/11/07 02:18:44;;;;;;;44.25;26.38;;;;;;;;;;4954018;29;20101;-86
2022/11/07 02:21:17;;;;;;;48.67;27.35;;;;;;;;;;4955090;29;20030;-86
2022/11/07 02:24:10;;;;;;;41.90;24.58;;;;;;;;;;4954981;29;20134;-85
2022/11/07 02:26:37;;;;;;;44.67;24.65;;;;;;;;;;4955018;29;20046;-86
2022/11/07 02:29:06;;;;;;;43.25;23.88;;;;;;;;;;4955104;29;20019;-86
2022/11/07 02:31:32;;;;;;;39.75;24.63;;;;;;;;;;4955005;29;20067;-86
2022/11/07 02:33:58;;;;;;;42.67;24.05;;;;;;;;;;4954939;29;20030;-85
2022/11/07 02:36:24;;;;;;;38.38;22.98;;;;;;;;;;4962251;28;20396;-87
2022/11/07 02:38:56;;;;;;;40.67;22.85;;;;;;;;;;4974366;28;20450;-86
2022/11/07 02:41:23;;;;;;;41.22;23.63;;;;;;;;;;4972873;28;20050;-86
2022/11/07 02:43:52;;;;;;;41.10;23.42;;;;;;;;;;4973985;28;20023;-86
2022/11/07 02:46:18;;;;;;;42.88;22.92;;;;;;;;;;4975073;28;20077;-85
2022/11/07 02:48:48;;;;;;;41.55;23.33;;;;;;;;;;4977791;28;20125;-86
2022/11/07 02:51:15;;;;;;;41.75;23.65;;;;;;;;;;4977524;28;20027;-86
2022/11/07 02:53:41;;;;;;;47.90;23.42;;;;;;;;;;4977715;28;20027;-87
2022/11/07 02:56:07;;;;;;;36.13;21.92;;;;;;;;;;4977638;28;20023;-86
2022/11/07 02:58:33;;;;;;;38.28;21.90;;;;;;;;;;4977414;28;20038;-85
2022/11/07 03:01:05;;;;;;;35.53;22.42;;;;;;;;;;4977511;28;20058;-86
2022/11/07 03:03:31;;;;;;;38.73;24.13;;;;;;;;;;4977779;28;20022;-87
2022/11/07 03:05:57;;;;;;;36.33;22.80;;;;;;;;;;4978372;28;20027;-86
2022/11/07 03:08:23;;;;;;;40.88;21.80;;;;;;;;;;4977431;28;20027;-86
2022/11/07 03:10:50;;;;;;;43.17;22.92;;;;;;;;;;4977494;28;20416;-86
2022/11/07 03:13:16;;;;;;;38.05;22.45;;;;;;;;;;4977578;28;20030;-86
2022/11/07 03:15:42;;;;;;;41.25;24.45;;;;;;;;;;4977325;28;20039;-86
2022/11/07 03:18:08;;;;;;;37.10;21.88;;;;;;;;;;4976512;28;20473;-86
2022/11/07 03:20:34;;;;;;;41.80;23.08;;;;;;;;;;4976970;28;20027;-87
2022/11/07 03:23:00;;;;;;;44.25;24.30;;;;;;;;;;4977475;28;20023;-86
2022/11/07 03:25:26;;;;;;;39.63;23.73;;;;;;;;;;4977154;28;20041;-85
2022/11/07 03:27:52;;;;;;;36.80;23.98;;;;;;;;;;4977347;28;20034;-86
2022/11/07 03:30:18;;;;;;;35.17;22.05;;;;;;;;;;4976935;28;20031;-85
2022/11/07 03:32:44;;;;;;;39.65;22.60;;;;;;;;;;4976685;28;20026;-85
2022/11/07 03:35:11;;;;;;;43.30;23.52;;;;;;;;;;4976861;28;20023;-87
2022/11/07 03:37:37;;;;;;;35.28;21.55;;;;;;;;;;4978071;28;20034;-87
2022/11/07 03:40:03;;;;;;;41.22;24.42;;;;;;;;;;4977753;28;20098;-86
2022/11/07 03:42:29;;;;;;;41.83;23.73;;;;;;;;;;4976811;28;20046;-86
2022/11/07 03:44:55;;;;;;;39.72;23.42;;;;;;;;;;4976136;28;20454;-85
2022/11/07 03:47:21;;;;;;;39.63;22.63;;;;;;;;;;4976773;28;20078;-85
2022/11/07 03:49:47;;;;;;;48.08;23.77;;;;;;;;;;4977069;28;20023;-87
2022/11/07 03:52:13;;;;;;;46.55;24.17;;;;;;;;;;4976519;28;20023;-86
2022/11/07 03:54:39;;;;;;;41.83;25.58;;;;;;;;;;4976454;28;20019;-86
2022/11/07 03:57:06;;;;;;;46.83;25.42;;;;;;;;;;4976022;28;20033;-85
2022/11/07 03:59:32;;;;;;;53.13;26.17;;;;;;;;;;4976638;28;20493;-85
2022/11/07 04:01:58;;;;;;;44.50;24.90;;;;;;;;;;4976212;28;20027;-86
2022/11/07 04:04:24;;;;;;;43.72;26.02;;;;;;;;;;4976236;28;20026;-86
2022/11/07 04:06:50;;;;;;;53.28;26.80;;;;;;;;;;4976461;28;20035;-85
2022/11/07 04:09:16;;;;;;;43.42;25.42;;;;;;;;;;4976353;28;20035;-86
2022/11/07 04:17:19;;;;;;;50.53;26.20;;;;;;;;;;4961843;28;20039;-86
2022/11/07 04:19:49;;;;;;;44.85;25.50;;;;;;;;;;4976306;28;20074;-86
2022/11/07 04:22:15;;;;;;;49.83;26.20;;;;;;;;;;4976146;28;20026;-86
2022/11/07 04:24:42;;;;;;;53.38;26.85;;;;;;;;;;4976290;28;20054;-86
2022/11/07 04:29:54;;;;;;;66.72;38.92;;;;;;;;;;4976929;28;20037;-86
2022/11/07 04:32:20;;;;;;;66.47;37.72;;;;;;;;;;4977324;28;20069;-86
2022/11/07 04:34:46;;;;;;;55.97;30.17;;;;;;;;;;4976926;28;20031;-85
2022/11/07 04:37:12;;;;;;;52.72;28.77;;;;;;;;;;4975378;28;20031;-85
2022/11/07 04:39:39;;;;;;;66.88;30.02;;;;;;;;;;4958963;29;20118;-87
2022/11/07 04:42:05;;;;;;;50.40;29.08;;;;;;;;;;4955017;29;20066;-86
2022/11/07 04:44:31;;;;;;;60.67;31.38;;;;;;;;;;4956465;29;20046;-86
2022/11/07 04:46:57;;;;;;;52.20;30.00;;;;;;;;;;4956253;29;20070;-86
2022/11/07 04:49:23;;;;;;;56.88;29.60;;;;;;;;;;4956132;29;20438;-86
2022/11/07 04:51:49;;;;;;;59.05;29.55;;;;;;;;;;4956305;29;20023;-86
2022/11/07 04:54:15;;;;;;;56.33;31.05;;;;;;;;;;4956411;29;20027;-86
2022/11/07 04:56:41;;;;;;;65.70;33.33;;;;;;;;;;4956020;29;20495;-86
2022/11/07 04:59:08;;;;;;;59.70;32.47;;;;;;;;;;4956320;29;20027;-85
2022/11/07 05:01:34;;;;;;;60.33;32.58;;;;;;;;;;4956172;29;20054;-87
2022/11/07 05:04:00;;;;;;;63.70;36.70;;;;;;;;;;4955504;29;20027;-85
2022/11/07 05:06:26;;;;;;;64.50;34.92;;;;;;;;;;4956002;29;20036;-85
2022/11/07 05:08:52;;;;;;;66.60;35.22;;;;;;;;;;4955182;28;20035;-87
2022/11/07 05:11:18;;;;;;;60.50;35.45;;;;;;;;;;4955737;29;20031;-86
2022/11/07 05:13:44;;;;;;;64.82;33.67;;;;;;;;;;4955691;29;20063;-86
2022/11/07 05:16:17;;;;;;;63.47;32.15;;;;;;;;;;4955880;29;20484;-86
2022/11/07 05:18:43;;;;;;;59.58;31.08;;;;;;;;;;4955452;29;20401;-86
2022/11/07 05:21:09;;;;;;;65.95;34.85;;;;;;;;;;4955854;29;20019;-86
2022/11/07 05:23:35;;;;;;;70.22;35.30;;;;;;;;;;4955712;29;20030;-86
2022/11/07 05:26:02;;;;;;;65.05;33.15;;;;;;;;;;4955549;29;20031;-87
2022/11/07 05:28:32;;;;;;;59.15;33.08;;;;;;;;;;4955560;29;20029;-87
2022/11/07 05:31:02;;;;;;;57.42;30.85;;;;;;;;;;4955661;29;20519;-85
2022/11/07 05:33:28;;;;;;;62.97;32.28;;;;;;;;;;4955353;29;20027;-86
2022/11/07 05:35:54;;;;;;;64.28;30.05;;;;;;;;;;4956611;29;20385;-87
2022/11/07 05:38:21;;;;;;;64.32;31.92;;;;;;;;;;4955056;29;20030;-87
2022/11/07 05:40:47;;;;;;;58.97;29.38;;;;;;;;;;4955254;29;20540;-87
2022/11/07 05:43:14;;;;;;;64.30;30.60;;;;;;;;;;4955561;29;20060;-86
2022/11/07 05:45:43;;;;;;;84.60;37.10;;;;;;;;;;4955373;29;20507;-86
2022/11/07 05:48:11;;;;;;;67.75;33.97;;;;;;;;;;4955497;29;20027;-86
2022/11/07 05:50:38;;;;;;;69.97;34.55;;;;;;;;;;4956489;28;20054;-86
2022/11/07 05:53:04;;;;;;;73.20;37.95;;;;;;;;;;4955275;29;20027;-86
2022/11/07 05:55:30;;;;;;;75.40;36.28;;;;;;;;;;4955223;29;20062;-87
2022/11/07 05:57:57;;;;;;;78.65;39.20;;;;;;;;;;4955477;29;20032;-86
2022/11/07 06:00:23;;;;;;;74.15;37.78;;;;;;;;;;4955179;29;20020;-85
2022/11/07 06:02:56;;;;;;;72.28;35.78;;;;;;;;;;4955185;29;20050;-85
2022/11/07 06:05:22;;;;;;;69.53;35.58;;;;;;;;;;4954800;29;20028;-86
2022/11/07 06:07:48;;;;;;;66.57;35.28;;;;;;;;;;4954967;29;20154;-85
2022/11/07 06:10:15;;;;;;;61.47;32.72;;;;;;;;;;4955888;29;20034;-86
2022/11/07 06:12:41;;;;;;;52.80;31.10;;;;;;;;;;4956006;29;20063;-85
2022/11/07 06:15:07;;;;;;;60.60;30.98;;;;;;;;;;4954409;29;20113;-85
2022/11/07 06:17:33;;;;;;;57.67;30.60;;;;;;;;;;4955030;29;20082;-85
2022/11/07 06:19:59;;;;;;;57.17;28.95;;;;;;;;;;4955421;28;20029;-86
2022/11/07 06:22:25;;;;;;;58.60;31.05;;;;;;;;;;4959713;29;20050;-85
2022/11/07 06:24:52;;;;;;;58.25;30.98;;;;;;;;;;4958784;29;20461;-86
2022/11/07 06:27:18;;;;;;;66.05;31.73;;;;;;;;;;4958663;29;20031;-86
2022/11/07 06:29:44;;;;;;;66.35;31.00;;;;;;;;;;4959012;29;20086;-86
2022/11/07 06:32:10;;;;;;;60.78;29.75;;;;;;;;;;4959016;29;20456;-86
2022/11/07 06:34:36;;;;;;;63.38;32.22;;;;;;;;;;4958347;29;20027;-87
2022/11/07 06:37:02;;;;;;;58.83;30.65;;;;;;;;;;4958699;29;20496;-86
2022/11/07 06:39:28;;;;;;;66.88;35.22;;;;;;;;;;4958717;29;20476;-86
2022/11/07 06:41:54;;;;;;;72.00;33.67;;;;;;;;;;4957963;29;20047;-86
2022/11/07 06:44:20;;;;;;;65.75;33.83;;;;;;;;;;4958584;29;20473;-87
2022/11/07 06:46:47;;;;;;;63.55;32.83;;;;;;;;;;4959695;29;20035;-87
2022/11/07 06:49:14;;;;;;;59.20;29.08;;;;;;;;;;4961285;29;20023;-85
2022/11/07 06:51:40;;;;;;;57.25;30.00;;;;;;;;;;4963872;29;20034;-87
2022/11/07 06:54:06;;;;;;;57.95;30.45;;;;;;;;;;4963113;29;20019;-85
2022/11/07 06:56:32;;;;;;;58.80;28.50;;;;;;;;;;4960787;29;20023;-86
2022/11/07 06:58:58;;;;;;;50.70;28.90;;;;;;;;;;4958233;29;20034;-86
2022/11/07 07:01:25;;;;;;;54.33;30.55;;;;;;;;;;4959430;28;20035;-86
2022/11/07 07:03:51;;;;;;;62.67;35.13;;;;;;;;;;4957861;29;20030;-86
2022/11/07 07:06:17;;;;;;;49.90;28.25;;;;;;;;;;4958087;29;20501;-85
2022/11/07 07:08:44;;;;;;;43.67;25.40;;;;;;;;;;4958058;29;20038;-86
2022/11/07 07:11:11;;;;;;;47.35;29.50;;;;;;;;;;4961560;29;20026;-86
2022/11/07 07:13:37;;;;;;;45.28;28.45;;;;;;;;;;4964496;29;20029;-86
2022/11/07 07:16:04;;;;;;;49.17;27.95;;;;;;;;;;4963453;29;20028;-85
2022/11/07 07:18:30;;;;;;;46.97;27.35;;;;;;;;;;4960742;29;20032;-86
2022/11/07 07:21:08;;;;;;;55.50;33.83;;;;;;;;;;4958526;29;20023;-86
2022/11/07 07:23:35;;;;;;;58.40;36.33;;;;;;;;;;4958262;29;20023;-86
2022/11/07 07:26:05;;;;;;;58.45;35.20;;;;;;;;;;4958502;29;20453;-86
2022/11/07 07:28:31;;;;;;;46.65;28.08;;;;;;;;;;4958278;29;20062;-87
2022/11/07 07:31:18;;;;;;;48.38;26.45;;;;;;;;;;4957733;29;20111;-86
2022/11/07 07:33:46;;;;;;;51.63;28.63;;;;;;;;;;4958512;29;20062;-86
2022/11/07 07:36:12;;;;;;;56.58;35.30;;;;;;;;;;4957736;29;20062;-85
2022/11/07 07:38:39;;;;;;;43.17;26.33;;;;;;;;;;4957446;29;20035;-85
2022/11/07 07:41:05;;;;;;;48.35;28.05;;;;;;;;;;4957928;29;20054;-86
2022/11/07 07:43:32;;;;;;;53.55;37.45;;;;;;;;;;4958679;29;20283;-85
2022/11/07 07:45:59;;;;;;;51.33;30.83;;;;;;;;;;4968039;29;20023;-84
2022/11/07 07:48:25;;;;;;;49.83;28.83;;;;;;;;;;4967307;29;20071;-86
2022/11/07 07:50:51;;;;;;;47.55;31.23;;;;;;;;;;4957367;29;20127;-88
2022/11/07 07:53:17;;;;;;;49.67;29.58;;;;;;;;;;4957261;29;20035;-86
2022/11/07 07:55:43;;;;;;;44.58;26.67;;;;;;;;;;4957161;29;20031;-86
2022/11/07 07:58:10;;;;;;;46.80;27.75;;;;;;;;;;4957006;29;20028;-87
2022/11/07 08:00:36;;;;;;;44.95;28.50;;;;;;;;;;4957137;29;20031;-84
2022/11/07 08:03:06;;;;;;;48.15;30.38;;;;;;;;;;4957156;29;20381;-84
2022/11/07 08:05:32;;;;;;;54.22;30.40;;;;;;;;;;4956967;29;20472;-85
2022/11/07 08:07:59;;;;;;;45.10;27.15;;;;;;;;;;4957177;29;20058;-85
2022/11/07 08:10:28;;;;;;;44.50;27.58;;;;;;;;;;4957175;29;20155;-87
2022/11/07 08:13:19;;;;;;;42.63;25.42;;;;;;;;;;4956909;29;20027;-86
2022/11/07 08:15:45;;;;;;;68.00;44.20;;;;;;;;;;4956985;29;20036;-86
2022/11/07 08:18:11;;;;;;;65.65;38.28;;;;;;;;;;4956909;29;20450;-86
2022/11/07 08:20:37;;;;;;;56.10;35.63;;;;;;;;;;4956762;29;20027;-85
2022/11/07 08:23:04;;;;;;;58.83;36.10;;;;;;;;;;4956791;29;20031;-86
2022/11/07 08:25:31;;;;;;;62.40;38.78;;;;;;;;;;4956877;29;20031;-86
2022/11/07 08:27:57;;;;;;;50.33;32.47;;;;;;;;;;4956453;29;20054;-86
2022/11/07 08:30:23;;;;;;;48.47;31.27;;;;;;;;;;4956832;29;20031;-85
2022/11/07 08:32:49;;;;;;;46.83;29.67;;;;;;;;;;4956731;29;20050;-88
2022/11/07 08:35:15;;;;;;;45.40;29.20;;;;;;;;;;4956177;29;20031;-87
2022/11/07 08:37:44;;;;;;;44.55;27.83;;;;;;;;;;4975147;28;20054;-85
2022/11/07 08:40:10;;;;;;;44.65;28.75;;;;;;;;;;4974404;28;20062;-83
2022/11/07 08:42:37;;;;;;;47.75;28.60;;;;;;;;;;4974613;28;20456;-86
2022/11/07 08:45:03;;;;;;;46.25;29.23;;;;;;;;;;4971386;28;20589;-87
2022/11/07 08:47:29;;;;;;;49.65;31.70;;;;;;;;;;4955905;29;20385;-87
2022/11/07 08:49:55;;;;;;;51.75;29.58;;;;;;;;;;4955740;29;20034;-89
2022/11/07 08:52:21;;;;;;;55.88;38.60;;;;;;;;;;4956699;29;20500;-88
2022/11/07 08:54:47;;;;;;;54.50;35.35;;;;;;;;;;4956268;29;20046;-88
2022/11/07 08:57:13;;;;;;;53.50;35.83;;;;;;;;;;4956508;29;20126;-90
2022/11/07 08:59:48;;;;;;;51.45;33.63;;;;;;;;;;4956384;29;20027;-88
2022/11/07 09:02:14;;;;;;;38.63;26.98;;;;;;;;;;4955861;29;20015;-86
2022/11/07 09:04:40;;;;;;;41.65;27.63;;;;;;;;;;4956213;29;20019;-89
2022/11/07 09:07:07;;;;;;;42.97;27.63;;;;;;;;;;4956420;29;20523;-90
2022/11/07 09:09:33;;;;;;;36.50;23.63;;;;;;;;;;4955883;29;20027;-90
2022/11/07 09:12:03;;;;;;;71.25;52.10;;;;;;;;;;4956116;29;20027;-89
2022/11/07 09:14:32;;;;;;;44.22;30.27;;;;;;;;;;4956209;29;20027;-89
2022/11/07 09:19:43;;;;;;;60.78;39.90;;;;;;;;;;4976271;28;20029;-90
2022/11/07 09:22:09;;;;;;;53.97;41.55;;;;;;;;;;4974641;28;20050;-90
2022/11/07 09:24:35;;;;;;;49.33;36.25;;;;;;;;;;4975214;28;20030;-92
2022/11/07 09:27:01;;;;;;;44.33;31.27;;;;;;;;;;4974899;28;20034;-90
2022/11/07 09:29:27;;;;;;;39.15;27.70;;;;;;;;;;4974809;28;20027;-88
2022/11/07 09:31:53;;;;;;;45.05;29.05;;;;;;;;;;4975191;28;20022;-89
2022/11/07 09:34:19;;;;;;;39.65;30.17;;;;;;;;;;4975844;28;20448;-91
2022/11/07 09:36:45;;;;;;;38.78;29.80;;;;;;;;;;4975074;28;20495;-88
2022/11/07 09:39:11;;;;;;;47.00;31.88;;;;;;;;;;4975366;28;20022;-90
2022/11/07 09:41:49;;;;;;;47.33;29.40;;;;;;;;;;4975186;28;20058;-89
2022/11/07 09:44:36;;;;;;;39.17;24.05;;;;;;;;;;4974876;28;20019;-90
2022/11/07 09:47:13;;;;;;;33.10;22.88;;;;;;;;;;4975153;28;20037;-90
2022/11/07 09:49:58;;;;;;;37.72;23.90;;;;;;;;;;4979078;28;20354;-89
2022/11/07 09:52:24;;;;;;;34.75;23.23;;;;;;;;;;4974756;28;20051;-89
2022/11/07 09:54:53;;;;;;;33.17;23.58;;;;;;;;;;4974500;28;20090;-90
2022/11/07 09:57:19;;;;;;;38.25;26.73;;;;;;;;;;4974413;28;20086;-91
2022/11/07 10:00:10;;;;;;;34.30;25.20;;;;;;;;;;4974468;28;20034;-89
2022/11/07 10:02:40;;;;;;;38.83;26.85;;;;;;;;;;4974868;28;20019;-90
2022/11/07 10:05:06;;;;;;;34.58;23.67;;;;;;;;;;4974434;28;20022;-90
2022/11/07 10:07:58;;;;;;;37.78;25.95;;;;;;;;;;4974108;28;20030;-88
2022/11/07 10:10:33;;;;;;;37.80;25.83;;;;;;;;;;4975081;28;20027;-90
2022/11/07 10:13:08;;;;;;;33.85;24.95;;;;;;;;;;4974731;28;20465;-91
2022/11/07 10:15:56;;;;;;;35.00;24.95;;;;;;;;;;4974865;28;20495;-92
2022/11/07 10:18:41;;;;;;;42.00;25.88;;;;;;;;;;4973932;28;20539;-90
2022/11/07 10:21:13;;;;;;;37.65;25.92;;;;;;;;;;4974568;28;20511;-90
2022/11/07 10:23:50;;;;;;;36.72;26.05;;;;;;;;;;4975227;28;20037;-90
2022/11/07 10:26:20;;;;;;;33.45;23.77;;;;;;;;;;4975125;28;20031;-90
2022/11/07 10:29:13;;;;;;;32.97;23.45;;;;;;;;;;4975549;28;20050;-90
2022/11/07 10:31:46;;;;;;;41.78;28.08;;;;;;;;;;4974678;28;20058;-89
2022/11/07 10:34:20;;;;;;;38.03;26.30;;;;;;;;;;4974453;28;20492;-86
2022/11/07 10:36:46;;;;;;;37.90;26.70;;;;;;;;;;4959437;28;20544;-85
2022/11/07 10:39:19;;;;;;;40.17;25.65;;;;;;;;;;4975826;28;20033;-86
2022/11/07 10:41:58;;;;;;;33.63;25.40;;;;;;;;;;4974479;28;20039;-86
2022/11/07 10:44:26;;;;;;;33.78;23.33;;;;;;;;;;4974613;28;20030;-86
2022/11/07 10:46:52;;;;;;;35.03;24.95;;;;;;;;;;4974380;28;20033;-89
2022/11/07 10:49:23;;;;;;;36.80;27.23;;;;;;;;;;4975739;28;20030;-88
2022/11/07 10:51:50;;;;;;;36.90;26.63;;;;;;;;;;4974376;28;20019;-88
2022/11/07 10:54:25;;;;;;;33.15;23.92;;;;;;;;;;4977946;28;20077;-85
2022/11/07 10:56:57;;;;;;;33.08;23.48;;;;;;;;;;4978326;28;20034;-85
2022/11/07 10:59:25;;;;;;;33.55;24.40;;;;;;;;;;4975592;28;20055;-86
2022/11/07 11:01:53;;;;;;;34.50;24.58;;;;;;;;;;4974511;28;20027;-88
2022/11/07 11:04:23;;;;;;;39.10;25.52;;;;;;;;;;4974481;28;20489;-85
2022/11/07 11:07:03;;;;;;;33.05;23.67;;;;;;;;;;4974645;28;20027;-87
2022/11/07 11:09:30;;;;;;;39.22;26.05;;;;;;;;;;4977041;28;20022;-86
2022/11/07 11:11:56;;;;;;;35.60;25.42;;;;;;;;;;4977608;28;20029;-87
2022/11/07 11:14:23;;;;;;;34.63;24.05;;;;;;;;;;4977342;28;20022;-88
2022/11/07 11:16:51;;;;;;;34.10;24.02;;;;;;;;;;4977492;28;20469;-86
2022/11/07 11:19:25;;;;;;;37.55;27.42;;;;;;;;;;4978941;28;20027;-87
2022/11/07 11:21:52;;;;;;;37.63;27.45;;;;;;;;;;4979098;28;20027;-85
2022/11/07 11:24:21;;;;;;;35.85;24.85;;;;;;;;;;4977877;28;20027;-86
2022/11/07 11:26:49;;;;;;;35.42;24.40;;;;;;;;;;4977626;28;20035;-85
2022/11/07 11:29:34;;;;;;;30.95;21.75;;;;;;;;;;4977711;28;20026;-85
2022/11/07 11:32:02;;;;;;;28.35;19.90;;;;;;;;;;4977513;28;20074;-86
2022/11/07 11:34:40;;;;;;;56.85;39.22;;;;;;;;;;4977482;28;20050;-87
2022/11/07 11:37:08;;;;;;;36.90;28.55;;;;;;;;;;4978260;28;20031;-87
2022/11/07 11:39:43;;;;;;;34.20;23.05;;;;;;;;;;4978462;28;20088;-86
2022/11/07 11:42:18;;;;;;;32.30;22.90;;;;;;;;;;4975724;28;20439;-85
2022/11/07 11:44:45;;;;;;;36.78;26.23;;;;;;;;;;4980894;28;20019;-88
2022/11/07 11:47:30;;;;;;;32.22;23.95;;;;;;;;;;4997635;28;20033;-87
2022/11/07 11:50:04;;;;;;;35.88;23.60;;;;;;;;;;4996911;28;20442;-86
2022/11/07 11:52:34;;;;;;;33.33;24.40;;;;;;;;;;4997138;28;20022;-87
2022/11/07 11:55:00;;;;;;;33.10;24.00;;;;;;;;;;4996486;28;20046;-87
2022/11/07 11:57:35;;;;;;;31.58;22.02;;;;;;;;;;5005538;28;20116;-87
2022/11/07 12:00:05;;;;;;;30.00;22.02;;;;;;;;;;5004568;28;20030;-87
2022/11/07 12:02:43;;;;;;;39.38;25.73;;;;;;;;;;5005714;28;20121;-86
2022/11/07 12:05:19;;;;;;;34.45;25.08;;;;;;;;;;5007796;28;20110;-86
2022/11/07 12:07:57;;;;;;;38.35;26.95;;;;;;;;;;5004439;28;20027;-86
2022/11/07 12:10:23;;;;;;;33.70;23.90;;;;;;;;;;5000226;28;20022;-87
2022/11/07 12:12:52;;;;;;;37.67;25.63;;;;;;;;;;4995499;28;20044;-87
2022/11/07 12:15:22;;;;;;;36.65;26.63;;;;;;;;;;4995898;28;20037;-88
2022/11/07 12:18:03;;;;;;;34.33;25.15;;;;;;;;;;4995317;28;20031;-88
2022/11/07 12:20:29;;;;;;;35.83;24.48;;;;;;;;;;4995787;28;20058;-87
2022/11/07 12:23:14;;;;;;;37.38;26.77;;;;;;;;;;5005782;28;20089;-86
2022/11/07 12:25:43;;;;;;;34.55;25.92;;;;;;;;;;5008304;28;20026;-87
2022/11/07 12:28:28;;;;;;;33.92;25.63;;;;;;;;;;5006949;28;20027;-86
2022/11/07 12:30:54;;;;;;;38.35;29.65;;;;;;;;;;4997252;28;20126;-87
2022/11/07 12:33:33;;;;;;;54.88;35.97;;;;;;;;;;4995664;28;20026;-88
2022/11/07 12:36:11;;;;;;;37.97;26.88;;;;;;;;;;4995725;28;20030;-88
2022/11/07 12:38:40;;;;;;;37.00;26.73;;;;;;;;;;4995687;28;20058;-87
2022/11/07 12:41:11;;;;;;;42.75;28.02;;;;;;;;;;4995426;28;20094;-87
2022/11/07 12:43:45;;;;;;;37.03;25.48;;;;;;;;;;4995640;28;20049;-87
2022/11/07 12:46:25;;;;;;;35.53;26.60;;;;;;;;;;4995093;28;20030;-88
2022/11/07 12:49:00;;;;;;;30.73;22.92;;;;;;;;;;4995399;28;20023;-87
2022/11/07 12:51:39;;;;;;;31.85;20.35;;;;;;;;;;4995104;28;20026;-88
2022/11/07 12:54:05;;;;;;;35.80;24.25;;;;;;;;;;4994790;28;20070;-87
2022/11/07 12:56:32;;;;;;;30.02;20.30;;;;;;;;;;4995026;28;20480;-87
2022/11/07 12:59:00;;;;;;;40.05;24.95;;;;;;;;;;4994910;28;20034;-87
2022/11/07 13:01:35;;;;;;;31.85;21.05;;;;;;;;;;4994687;28;20022;-87
2022/11/07 13:04:15;;;;;;;33.65;23.35;;;;;;;;;;4995272;28;20026;-86
2022/11/07 13:06:41;;;;;;;36.80;23.52;;;;;;;;;;4995822;28;20030;-86
2022/11/07 13:09:23;;;;;;;32.40;24.58;;;;;;;;;;4994883;28;20026;-87
2022/11/07 13:11:58;;;;;;;40.35;27.65;;;;;;;;;;4995114;28;20498;-86
2022/11/07 13:14:30;;;;;;;34.83;25.35;;;;;;;;;;4994571;28;20026;-86
2022/11/07 13:16:56;;;;;;;;;;;;;;;;;;4995300;28;20388;-87
2022/11/07 13:19:26;;;;;;;33.53;22.92;;;;;;;;;;4994910;28;20005;-87
2022/11/07 13:22:19;;;;;;;30.70;23.17;;;;;;;;;;4994700;28;20109;-87
2022/11/07 13:24:53;;;;;;;39.90;23.95;;;;;;;;;;4995767;28;20029;-88
2022/11/07 13:27:23;;;;;;;34.30;24.13;;;;;;;;;;4995385;28;20441;-87
2022/11/07 13:29:50;;;;;;;35.30;23.80;;;;;;;;;;4993865;28;20507;-86
2022/11/07 13:32:16;;;;;;;38.70;26.80;;;;;;;;;;4994515;28;20030;-88
2022/11/07 13:34:51;;;;;;;35.30;21.75;;;;;;;;;;4993930;28;20073;-87
2022/11/07 13:37:19;;;;;;;33.80;23.73;;;;;;;;;;4995657;28;20494;-88
2022/11/07 13:39:46;;;;;;;35.75;23.50;;;;;;;;;;4994728;28;20026;-87
2022/11/07 13:42:15;;;;;;;38.03;25.90;;;;;;;;;;4994372;28;20046;-88
2022/11/07 13:44:42;;;;;;;34.95;23.65;;;;;;;;;;4994875;28;20030;-88
2022/11/07 13:47:15;;;;;;;34.42;24.48;;;;;;;;;;4994399;28;20388;-88
2022/11/07 13:49:44;;;;;;;36.67;28.30;;;;;;;;;;4994139;28;20050;-88
2022/11/07 13:52:22;;;;;;;37.78;25.48;;;;;;;;;;4994329;28;20027;-87
2022/11/07 13:54:57;;;;;;;31.80;21.40;;;;;;;;;;4994480;28;20026;-87
2022/11/07 13:57:46;;;;;;;34.28;21.85;;;;;;;;;;4994440;28;20026;-87
2022/11/07 14:00:14;;;;;;;37.10;24.08;;;;;;;;;;4995593;28;20081;-86
2022/11/07 14:02:49;;;;;;;40.38;27.83;;;;;;;;;;4998628;28;20093;-86
2022/11/07 14:05:15;;;;;;;94.22;61.00;;;;;;;;;;5007318;28;20488;-85
2022/11/07 14:07:43;;;;;;;46.90;31.30;;;;;;;;;;5003631;28;20015;-86
2022/11/07 14:10:15;;;;;;;32.05;22.08;;;;;;;;;;4993729;28;20151;-86
2022/11/07 14:12:41;;;;;;;32.75;23.45;;;;;;;;;;4993878;28;20027;-86
2022/11/07 14:15:13;;;;;;;38.05;27.05;;;;;;;;;;4993799;28;20030;-86
2022/11/07 14:17:39;;;;;;;49.35;31.60;;;;;;;;;;4994156;28;20022;-85
2022/11/07 14:20:14;;;;;;;56.13;34.35;;;;;;;;;;4993835;28;20165;-85
2022/11/07 14:22:47;;;;;;;43.88;30.27;;;;;;;;;;4993785;28;20027;-85
2022/11/07 14:25:18;;;;;;;54.22;35.80;;;;;;;;;;4993679;28;20055;-85
2022/11/07 14:27:45;;;;;;;61.08;40.35;;;;;;;;;;4993864;28;20019;-85
2022/11/07 14:30:15;;;;;;;53.08;33.83;;;;;;;;;;4971955;28;20024;-86
2022/11/07 14:32:51;;;;;;;46.88;35.65;;;;;;;;;;4970845;28;20019;-87
2022/11/07 14:35:19;;;;;;;45.70;33.95;;;;;;;;;;4970557;28;20504;-86
2022/11/07 14:37:48;;;;;;;77.72;56.75;;;;;;;;;;4994790;28;20012;-85
2022/11/07 14:40:20;;;;;;;97.57;69.65;;;;;;;;;;4993661;28;20015;-86
2022/11/07 14:42:47;;;;;;;81.63;55.67;;;;;;;;;;4983425;28;20052;-84